Time,TemperatureF,DewpointF,PressureIn,WindDirection,WindDirectionDegrees,WindSpeedMPH,WindSpeedGustMPH,Humidity,HourlyPrecipIn,Conditions,Clouds,dailyrainin,SoftwareType,DateUTC
2013-09-06 00:23:00,68.0,62.0,30.18,SE,146,0.0,1.0,81,85.84,,,-99.99,,2013-09-06 05:23:00,
2013-09-06 00:52:00,68.0,63.0,30.18,North,0,0.0,0.0,83,85.84,,,-99.99,,2013-09-06 05:52:00,
2013-09-06 01:11:00,67.0,62.0,30.19,North,0,0.0,0.0,83,85.84,,,-99.99,,2013-09-06 06:11:00,
2013-09-06 01:21:00,67.0,62.0,30.19,North,0,0.0,0.0,83,85.84,,,-99.99,,2013-09-06 06:21:00,
2013-09-06 01:53:00,66.0,62.0,30.19,ENE,73,0.0,1.0,86,85.84,,,-99.99,,2013-09-06 06:53:00,
2013-09-06 02:11:00,65.0,61.0,30.19,SSE,160,0.0,1.0,88,85.84,,,-99.99,,2013-09-06 07:11:00,
2013-09-06 02:23:00,65.0,61.0,30.19,SSE,160,0.0,1.0,88,85.84,,,-99.99,,2013-09-06 07:23:00,
2013-09-06 02:52:00,64.0,61.0,30.18,North,0,0.0,0.0,91,85.84,,,-99.99,,2013-09-06 07:52:00,
2013-09-06 03:22:00,63.0,61.0,30.17,North,0,0.0,0.0,93,85.84,,,-99.99,,2013-09-06 08:22:00,
2013-09-06 03:52:00,63.0,61.0,30.18,North,0,0.0,0.0,93,85.84,,,-99.99,,2013-09-06 08:52:00,
2013-09-06 04:22:00,63.0,62.0,30.17,North,0,0.0,0.0,95,85.84,,,-99.99,,2013-09-06 09:22:00,
2013-09-06 04:53:00,62.0,61.0,30.18,North,0,0.0,0.0,95,85.84,,,-99.99,,2013-09-06 09:53:00,
2013-09-06 05:23:00,62.0,60.0,30.18,North,0,0.0,0.0,94,85.84,,,-99.99,,2013-09-06 10:23:00,
2013-09-06 05:32:00,62.0,60.0,30.18,North,0,0.0,0.0,94,85.84,,,-99.99,,2013-09-06 10:32:00,
2013-09-06 05:53:00,62.0,60.0,30.18,North,0,0.0,0.0,94,85.84,,,-99.99,,2013-09-06 10:53:00,
2013-09-06 06:02:00,62.0,60.0,30.18,North,0,0.0,0.0,94,85.84,,,-99.99,,2013-09-06 11:02:00,
2013-09-06 06:52:00,61.0,59.0,30.18,North,0,0.0,0.0,93,85.84,,,-99.99,,2013-09-06 11:52:00,
2013-09-06 07:21:00,61.0,59.0,30.18,North,0,0.0,0.0,93,85.84,,,-99.99,,2013-09-06 12:21:00,
2013-09-06 07:52:00,62.0,60.0,30.19,SSE,153,1.0,4.0,93,85.84,,,-99.99,,2013-09-06 12:52:00,
2013-09-06 08:22:00,65.0,59.0,30.19,SE,142,1.0,4.0,81,85.84,,,-99.99,,2013-09-06 13:22:00,
2013-09-06 08:52:00,66.0,59.0,30.19,SE,124,1.0,5.0,77,85.84,,,-99.99,,2013-09-06 13:52:00,
2013-09-06 09:22:00,69.0,59.0,30.19,SE,135,1.0,3.0,70,85.84,,,-99.99,,2013-09-06 14:22:00,
2013-09-06 09:52:00,72.0,60.0,30.20,South,173,1.0,4.0,66,85.84,,,-99.99,,2013-09-06 14:52:00,
2013-09-06 10:22:00,74.0,60.0,30.19,South,187,0.0,3.0,62,85.84,,,-99.99,,2013-09-06 15:22:00,
2013-09-06 10:53:00,76.0,61.0,30.19,ENE,62,1.0,3.0,60,85.84,,,-99.99,,2013-09-06 15:53:00,
2013-09-06 11:24:00,79.0,61.0,30.18,WSW,242,1.0,5.0,55,85.84,,,-99.99,,2013-09-06 16:24:00,
2013-09-06 11:53:00,81.0,63.0,30.18,SSW,207,0.0,2.0,54,85.84,,,-99.99,,2013-09-06 16:53:00,
2013-09-06 12:24:00,83.0,63.0,30.17,East,89,0.0,3.0,51,85.84,,,-99.99,,2013-09-06 17:24:00,
2013-09-06 12:53:00,84.0,63.0,30.16,West,259,1.0,4.0,50,85.84,,,-99.99,,2013-09-06 17:53:00,
2013-09-06 13:22:00,85.0,64.0,30.15,SW,225,1.0,4.0,50,85.84,,,-99.99,,2013-09-06 18:22:00,
2013-09-06 13:52:00,86.0,64.0,30.14,SSW,198,1.0,6.0,48,85.84,,,-99.99,,2013-09-06 18:52:00,
2013-09-06 14:22:00,86.0,65.0,30.13,SSE,152,1.0,5.0,49,85.84,,,-99.99,,2013-09-06 19:22:00,
2013-09-06 14:52:00,87.0,64.0,30.11,SSW,211,1.0,3.0,46,85.84,,,-99.99,,2013-09-06 19:52:00,
2013-09-06 15:23:00,88.0,65.0,30.10,SSW,194,0.0,2.0,46,85.84,,,-99.99,,2013-09-06 20:23:00,
2013-09-06 15:52:00,88.0,65.0,30.09,WNW,300,0.0,1.0,46,85.84,,,-99.99,,2013-09-06 20:52:00,
2013-09-06 16:22:00,87.0,63.0,30.08,SSW,207,0.0,3.0,45,85.84,,,-99.99,,2013-09-06 21:22:00,
2013-09-06 16:54:00,88.0,64.0,30.07,SW,217,0.0,3.0,45,85.84,,,-99.99,,2013-09-06 21:54:00,
2013-09-06 17:23:00,89.0,64.0,30.07,SSW,207,0.0,0.0,44,85.84,,,-99.99,,2013-09-06 22:23:00,
2013-09-06 17:54:00,88.0,65.0,30.07,NW,309,0.0,3.0,46,85.84,,,-99.99,,2013-09-06 22:54:00,
2013-09-06 18:23:00,86.0,65.0,30.06,North,0,0.0,0.0,50,85.84,,,-99.99,,2013-09-06 23:23:00,
2013-09-06 18:52:00,84.0,68.0,30.06,North,0,0.0,0.0,58,85.84,,,-99.99,,2013-09-06 23:52:00,
2013-09-06 19:22:00,81.0,69.0,30.05,North,0,0.0,0.0,66,85.84,,,-99.99,,2013-09-07 00:22:00,
2013-09-06 19:52:00,77.0,68.0,30.06,North,0,0.0,0.0,74,85.84,,,-99.99,,2013-09-07 00:52:00,
2013-09-06 20:22:00,74.0,68.0,30.06,North,0,0.0,0.0,81,85.84,,,-99.99,,2013-09-07 01:22:00,
2013-09-06 20:53:00,73.0,68.0,30.06,North,0,0.0,0.0,84,85.84,,,-99.99,,2013-09-07 01:53:00,
2013-09-06 21:23:00,72.0,68.0,30.06,North,0,0.0,0.0,87,85.84,,,-99.99,,2013-09-07 02:23:00,
2013-09-06 21:52:00,70.0,67.0,30.06,North,0,0.0,0.0,90,85.84,,,-99.99,,2013-09-07 02:52:00,
2013-09-06 22:23:00,69.0,67.0,30.06,North,0,0.0,0.0,92,85.84,,,-99.99,,2013-09-07 03:23:00,
2013-09-06 22:55:00,68.0,66.0,30.06,North,0,0.0,0.0,94,85.84,,,-99.99,,2013-09-07 03:55:00,
2013-09-06 23:23:00,68.0,67.0,30.05,North,0,0.0,0.0,96,85.84,,,-99.99,,2013-09-07 04:23:00,
2013-09-06 23:54:00,69.0,67.0,30.03,East,101,0.0,1.0,94,85.84,,,-99.99,,2013-09-07 04:54:00,